Pioche, Nevada Weather observations

Data are for observation ending at time listed.
 Day   Time    Ave.   Ave.  Ave.  Vector   Max.   Stn.    Total    Solar   Ave.  
  of    of     Air    Rel.  Wind   Wind    Wind   Baro.  Precip.   Rad.    Soil  
Year   Day     Temp.  Hum.  Speed  Dir.    Gust   Pres.                    Temp. 
2026   (PST)    F      %     mph   deg.    mph     mb.     in.     W/m2     F   
------------------------------------------------------------------------------
 127   17:20   75.4    14    7.6   295     11.8   815.0    0.00      62    61.6
 127   17:30   75.6    14    8.3   288     13.9   814.8    0.00      84    61.6
 127   17:40   75.2    14    7.0   282     11.8   814.9    0.00     152    61.7
 127   17:50   75.0    14    6.4   274     10.8   814.9    0.00     144    61.7
 127   18:00   74.6    14    5.6   269      9.3   815.1    0.00     108    61.8
 127   18:10   74.2    14    4.2   264     12.4   815.2    0.00      67    61.9
 127   18:20   72.8    15    1.7   240      3.4   815.0    0.00      24    62.0
 127   18:30   70.6    18    2.3   212      4.2   815.1    0.00      11    62.0
 127   18:40   69.6    18    2.2   214      4.1   815.2    0.00       6    62.1
 127   18:50   68.7    18    2.8   208      4.7   815.3    0.00       1    62.2
 127   19:00   68.5    18    2.6   209      4.6   815.3    0.00       0    62.3
 127   19:10   68.4    18    2.8   208      4.7   815.3    0.00       0    62.3
 127   19:20   68.2    18    2.5   207      4.5   815.4    0.00       0    62.4
 127   19:30   67.6    18    3.2   204      4.5   815.6    0.00       0    62.4
 127   19:40   67.4    18    2.8   207      4.8   816.0    0.00       0    62.4
 127   19:50   67.2    18    2.5   209      4.3   816.4    0.00       0    62.4
 127   20:00   67.1    19    2.3   205      4.4   816.6    0.00       0    62.5
 127   20:10   66.9    19    2.3   208      3.9   816.4    0.00       0    62.5
 127   20:20   67.2    18    1.8   212      3.4   816.3    0.00       0    62.5
 127   20:30   67.0    18    1.7   215      4.5   816.3    0.00       0    62.5
 127   20:40   67.2    18    1.9   138      5.0   816.5    0.00       0    62.5
 127   20:50   63.3    22    1.3    91      4.3   816.7    0.00       0    62.5
 127   21:00   61.5    24    1.6   183      3.6   816.7    0.00       0    62.5
 127   21:10   61.0    25    1.6   170      3.7   816.6    0.00       0    62.5
 127   21:20   61.3    25    1.3   182      3.4   816.9    0.00       0    62.6
 127   21:30   60.7    25    1.0   234      3.1   816.9    0.00       0    62.6
 127   21:40   61.5    24    1.7   209      3.9   816.9    0.00       0    62.6
 127   21:50   62.2    24    3.3   149      5.6   817.0    0.00       0    62.6
 127   22:00   61.9    24    3.8   145      6.0   817.2    0.00       0    62.6
 127   22:10   62.1    23    3.4   147      5.9   817.2    0.00       0    62.6
 127   22:20   61.5    24    1.3   173      3.9   817.3    0.00       0    62.6
 127   22:30   59.9    26    1.5   245      3.1   817.6    0.00       0    62.5
 127   22:40   58.6    26    1.1   185      2.1   817.7    0.00       0    62.5
 127   22:50   58.1    28    3.0   116      5.6   817.4    0.00       0    62.5
 127   23:00   58.9    26    2.5   138      4.9   817.1    0.00       0    62.5
 127   23:10   58.8    27    2.7   174      5.6   817.2    0.00       0    62.5
 127   23:20   58.4    27    1.3   184      3.4   817.0    0.00       0    62.5
 127   23:30   60.0    25    1.8   173      3.6   816.9    0.00       0    62.4
 127   23:40   59.6    25    1.6   149      3.8   817.5    0.00       0    62.4
 127   23:50   58.2    28    2.0    96      3.4   817.6    0.00       0    62.4
 128    0:00   56.3    30    1.4   138      3.4   817.6    0.00       0    62.4
 128    0:10   55.6    31    1.1   195      2.8   817.6    0.00       0    62.4
 128    0:20   55.1    31    1.1   194      2.7   817.6    0.00       0    62.4
 128    0:30   55.0    32    1.1   162      2.5   817.7    0.00       0    62.4
 128    0:40   54.7    32    2.2   150      3.9   817.8    0.00       0    62.4
 128    0:50   55.3    31    3.2   146      5.6   818.8    0.00       0    62.4
 128    1:00   55.5    30    1.5   152      3.4   818.7    0.00       0    62.3
 128    1:10   56.3    29    2.0   150      3.7   818.3    0.00       0    62.3
 128    1:20   57.1    28    1.5   152      3.5   818.5    0.00       0    62.3
 128    1:30   57.3    28    0.9   147      2.6   818.4    0.00       0    62.3
 128    1:40   55.7    30    0.5   159      1.7   818.2    0.00       0    62.3
 128    1:50   55.5    31    1.2   176      2.4   818.7    0.00       0    62.2
 128    2:00   56.0    30    1.5   147      2.8   819.2    0.00       0    62.2
 128    2:10   56.1    30    1.5   113      3.5   819.4    0.00       0    62.2
 128    2:20   53.8    34    1.6   174      2.6   819.4    0.00       0    62.2
 128    2:30   54.0    34    1.5   191      2.8   819.4    0.00       0    62.1
 128    2:40   54.1    34    0.8   217      2.4   819.5    0.00       0    62.1
 128    2:50   54.2    33    1.7    98      2.9   819.5    0.00       0    62.1
 128    3:00   54.2    33    0.7   147      1.4   819.5    0.00       0    62.1
 128    3:10   53.3    35    0.9   184      2.5   819.2    0.00       0    62.0
 128    3:20   53.6    34    1.0   185      2.3   819.2    0.00       0    62.0
 128    3:30   53.9    34    1.2   152      2.9   818.7    0.00       0    62.0
 128    3:40   54.0    34    1.4   151      2.6   818.7    0.00       0    62.0
 128    3:50   53.7    34    1.6   154      3.1   819.1    0.00       0    62.0
 128    4:00   53.6    34    1.8   151      3.4   818.8    0.00       0    62.0
 128    4:10   53.1    36    0.5   160      2.9   818.6    0.00       0    61.9
 128    4:20   53.1    35    1.5   151      3.0   818.6    0.00       0    61.9
 128    4:30   53.0    36    0.6   136      2.7   818.7    0.00       0    61.9
 128    4:40   52.9    35    0.2   130      1.1   819.2    0.00       2    61.8
 128    4:50   52.0    37    0.6   147      1.4   819.2    0.00      10    61.8
 128    5:00   51.6    38    0.0   189      0.5   819.0    0.00      14    61.8
 128    5:10   51.3    40    0.8   232      2.5   819.1    0.00      20    61.8
 128    5:20   52.4    36    1.1   271      3.1   819.1    0.00      26    61.8
 128    5:30   53.5    34    0.6   234      2.5   819.0    0.00      29    61.7
 128    5:40   54.6    35    1.7   215      3.4   819.5    0.00      34    61.7
 128    5:50   56.7    31    2.2   269      3.9   819.4    0.00      36    61.6
 128    6:00   58.5    29    2.6   270      4.5   819.3    0.00     181    61.6
 128    6:10   60.2    28    2.0   271      3.1   819.2    0.00     245    61.5
 128    6:20   61.6    25    2.3   283      3.4   819.4    0.00     166    61.5
 128    6:30   63.1    26    1.4   304      2.7   819.8    0.00     150    61.5
 128    6:40   64.6    26    0.6   332      2.3   819.7    0.00     143    61.5
 128    6:50   65.5    26    0.4     7      1.5   819.7    0.00     388    61.5
 128    7:00   66.6    27    0.9   322      2.3   819.5    0.00     434    61.5
 128    7:10   66.5    27    1.1   309      2.5   819.5    0.00     528    61.5
 128    7:20   67.8    24    0.8   347      2.3   819.4    0.00     565    61.5
 128    7:30   69.0    22    1.1    60      3.8   819.5    0.00     601    61.5
 128    7:40   70.4    20    0.5    26      1.9   819.3    0.00     638    61.5
 128    7:50   71.7    19    0.8   337      3.4   819.4    0.00     675    61.5
 128    8:00   73.0    18    0.8    46      2.9   819.3    0.00     709    61.5
 128    8:10   72.2    18    1.6   322      4.6   819.3    0.00     742    61.5
 128    8:20   72.5    17    0.7   331      5.1   819.3    0.00     776    61.5
 128    8:30   72.3    17    1.9   310      5.9   819.3    0.00     809    61.5
 128    8:40   72.6    15    2.3   293      5.8   819.2    0.00     838    61.4
 128    8:50   73.1    16    2.9   310      7.5   819.1    0.00     866    61.4
 128    9:00   73.3    16    2.2   308      7.7   819.1    0.00     895    61.4
 128    9:10   73.6    16    3.6   310      8.8   819.1    0.00     920    61.4
 128    9:20   74.3    16    4.5   286      8.3   819.0    0.00     943    61.4
 128    9:30   74.3    15    4.8   274     12.9   819.0    0.00     966    61.4
 128    9:40   75.1    14    2.3   282      7.0   819.8    0.00     991    61.4
 128    9:50   76.6    13    2.9   290      6.8   819.1    0.00    1011    61.4
 128   10:00   76.6    12    3.5   286     12.0   818.8    0.00    1030    61.4
 128   10:10   76.7    13    8.4   297     14.9   818.4    0.00    1046    61.4
 128   10:20   76.5    12    6.1   303     12.4   818.4    0.00    1063    61.4
 128   10:30   76.8    13    5.1   239     12.1   818.6    0.00    1078    61.4
 128   10:40   76.6    13    6.6   282     13.6   818.5    0.00    1092    61.5
 128   10:50   76.6    12    6.8   289     14.0   818.6    0.00    1103    61.5
 128   11:00   77.2    13    6.7   282     17.8   818.4    0.00    1103    61.5
 128   11:10   77.1    13    7.4   255     15.3   818.4    0.00    1112    61.5
 128   11:20   76.7    13    5.7   238     11.6   817.8    0.00    1119    61.5
 128   11:30   77.3    13    6.4   254     17.5   817.3    0.00    1122    61.6
 128   11:40   76.9    13    6.4   268     15.6   817.4    0.00    1122    61.7
 128   11:50   78.3    12    5.3   248     13.3   817.6    0.00    1120    61.7
 128   12:00   78.0    12    6.0   265     12.7   817.7    0.00    1116    61.8
 128   12:10   77.7    12    9.3   269     23.0   817.6    0.00    1111    61.8
 128   12:20   78.1    11    6.9   277     11.2   817.6    0.00    1105    61.9
 128   12:30   79.0    10    6.3   266     17.8   817.3    0.00    1094    62.0
 128   12:40   77.7    10    6.7   272     13.8   817.2    0.00    1080    62.0
 128   12:50   78.1    10    6.9   259     17.0   817.3    0.00    1072    62.0
 128   13:00   78.6    11    6.6   267     18.0   817.2    0.00    1059    62.1
 128   13:10   78.5    10    9.9   271     20.0   816.9    0.00    1043    62.2
 128   13:20   78.4    10    8.1   263     18.5   816.9    0.00    1026    62.2
 128   13:30   79.8    11    5.6   234     13.0   816.8    0.00    1005    62.3
 128   13:40   79.3    10    6.5   259     14.7   816.8    0.00     975    62.3
 128   13:50   79.7    11    5.2   264     13.4   817.0    0.00     956    62.4
 128   14:00   80.4    11    6.9   269     15.3   816.7    0.00     936    62.6
 128   14:10   79.8    10    7.5   272     16.9   817.2    0.00     915    62.6
 128   14:20   79.1    10    7.9   265     17.7   819.0    0.00     890    62.7
 128   14:30   78.7    11    7.2   262     15.1   819.3    0.00     580    62.7
 128   14:40   79.0    11    3.5   221      9.5   819.2    0.00      97    62.8
 128   14:50   78.5    11    8.9   273     16.7   819.1    0.00      48    62.9
 128   15:00   78.6    10    6.6   262     14.6   819.0    0.00      47    63.0
 128   15:10   78.7    10    9.2   268     15.1   818.9    0.00      44    63.1
 128   15:20   78.6    10    6.9   265     17.2   818.8    0.00      45    63.1
 128   15:30   78.3    11    7.2   274     19.0   818.8    0.00      40    63.2
 128   15:40   78.6    11    7.9   287     12.9   818.8    0.00      40    63.2
 128   15:50   78.7    10    8.3   289     13.7   818.7    0.00      44    63.2
 128   16:00   78.3    10   10.8   275     19.8   818.6    0.00      44    63.3
 128   16:10   78.4    10    8.3   273     13.3   818.6    0.00      43    63.4
 128   16:20   78.6    10    7.7   273     15.1   818.6    0.00      39    63.4
 128   16:30   78.3    11    8.0   271     12.4   818.6    0.00      37    63.5
 128   16:40   78.4    11    9.0   278     14.7   818.5    0.00      36    63.5
 128   16:50   78.3    11    6.6   270     14.0   818.5    0.00      36    63.6
 128   17:00   78.1    11    8.1   269     14.7   818.4    0.00      38    63.6
 128   17:10   77.8    11    7.5   275     14.2   818.4    0.00      36    63.6

Return to Pioche, Nevada graphs page.


Western Regional Climate Center,wrcc@dri.edu